Search for airport 
image banner adimage banner adimage banner ad
image banner ad

PN03 - Abington Memorial Hospital

Located in Abington, United States

ICAO - PN03, IATA -

Data provided by Airmate  

General information

Coordinates: N40°7'9" W75°7'12"
Elevation is 436 feet MSL.
Magnetic variation is -12° East
View others Airports in Pennsylvania

Operational data

Special qualification required
Current time UTC:
Current local time:
Weather at : KPNE - Northeast Philadelphia ( 10 km )
METAR: KPNE 291554Z VRB04KT 10SM BKN020 OVC047 24/20 A2999 RMK AO2 SLP153 T02440200
TAF: KPNE 291131Z 2912/3012 17004KT P6SM VCSH BKN080 TEMPO 2912/2913 2SM SHRA OVC040 FM291500 18006KT P6SM BKN035 FM291930 19010KT P6SM -SHRA VCTS BKN045CB TEMPO 2922/3002 VRB10G30KT 2SM TSRA OVC050CB FM300400 25008KT P6SM BKN020
View NOTAMs / SUP AIP / TFR affecting this airport [VIEW]
Communications frequencies: [VIEW]

Runways:

Airport contact information

Address: Abington United States

Satellite view of PN03